Airfield :
LOGIN :

Register | Disclaimer

   EN    FR    IT 

 










Legend :    VFR   Marginal VFR   IFR   Intensive IFR   Very Intensive IFR
Visi :
Ceiling :
>= 8 km
>= 3000ft
5 to 8 km
1000 to 3000 ft
1500m to 5 km
500 to 1000 ft
800 to 1500m
200 to 500 ft
< 800m
< 200 ft
Symbols :   Thunderstorms  Fog  Heavy snow  Heavy precipitations  Wind > 20 kt
SIGMETs :     Misc.  Thunderstorms  Icing  Turbulence  Mountain Waves  Volcanic Ashes






- Airport Elevation : 330 ft
- IATA code : LVA


LFOV - Laval-Entrammes

CURRENT METAR :
  • 071000Z AUTO 26006KT 220V280 9999 FEW031/// BKN056/// OVC074/// ///TCU 15/09 Q1011

EXPIRED METARs :
  • 070930Z AUTO 30006KT 240V350 9999 FEW025 OVC070 15/09 Q1010
  • 070900Z AUTO 28006KT 230V340 9999 FEW021 OVC070 14/09 Q1010
  • 070830Z AUTO 29006KT 250V350 9999 BKN019 BKN025 OVC066 14/10 Q1010
  • 070800Z AUTO 27007KT 230V290 9999 BKN017 BKN072 BKN092 14/09 Q1010
  • 070730Z AUTO 27006KT 230V290 CAVOK 13/09 Q1010

TAF N/A



MET'MAP, your aeronautical weather chart ! - Copyright ORBIFLY December 2007 - Disclaimer

ORBIFLY MET'MAP TEAM :

Programming & Development : Alexandra Zaïnal
Concept & original design : Baudouin d'Aumeries
Assistance for programming : Marc-Olivier Méhu
Technical & hardware support : Manuel Goepfert

Contact : metmap@orbifly.com




SOURCES & CREDITS :

   NOAA